Aeroporto :
LOGIN :

Iscrizione | Disclaimer

   EN    FR    IT 

 










Sommario :    VFR   VFR Marginale   IFR   IFR Intensivo   IFR Molto Intensivo
Visibilità : 
Base nubi : 
>= 8 km
>= 3000ft
5 / 8 km
1000 / 3000 ft
1500m / 5 km
500 / 1000 ft
800 / 1500m
200 / 500 ft
< 800m
< 200 ft
Simboli :   Temporali  Nebbia  Neve Forte  Precipitazioni Forti  Vento > 20 kt
SIGMETs :   Varie  Temporali  Ghiacco  Turbolenza  Onda orograficha  Ceneri Vulcaniche






- Altitudine del aeroporto : 510 ft


LJCE - Cerklje

ULTIMO METAR :
  • 250000Z AUTO 24002KT 9999 NCD M01/M02 Q1015

METARs OBSOLETI :
  • 242330Z AUTO 30002KT 9999 NCD M00/M01 Q1016
  • 242300Z AUTO 26001KT 9999 NCD 00/M01 Q1016
  • 242230Z AUTO 00000KT 9999 NCD 01/M01 Q1016
  • 242200Z AUTO 00000KT 9999 NCD 01/M01 Q1017
  • 242130Z AUTO 00000KT 9999 NCD 01/M01 Q1017

TAF TAF LJCE
Valido dal 25 a 00 ore il 25 a 09 ore UTC


242300Z 2500/2509 VRB02KT CAVOK
BECMG 2503/2505 SCT040
TEMPO 2505/2509 BKN040
BECMG 2508/2509 26005KT



MetMap, La meteo Aeronautica in un colpo d'occhio ! - Copyright ORBIFLY Dicembre 2007 - Disclaimer

ORBIFLY MET'MAP TEAM :

Programmazione e sviluppo : Alexandra Zaïnal
Concezione : Baudouin d'Aumeries
Aiuto per la programmazione : Marc-Olivier Méhu
Supporto tecnico e logistico : Manuel Goepfert
Aiuto per la traduzione : Arnaldo La Scala

Contatto : metmap@orbifly.com




FONTI E CREDITI :

   NOAA